WUK70 EPLB-EGGW
Flight info
| Callsign | WUK70 |
|---|---|
| Flight time | N/A |
| Altitude | 34000 |
| Route | ARGIX T709 KOTEK DCT LASIS DCT GOBAX/N0445F360 DCT ZUCKA DCT NOGRO M40 RINIS |
| Aircraft | A21N/M-SDE3FGHIRWY/LB1 |
Departure
| Time | N/A |
|---|---|
| Airport | Lublin Airport (EPLB) |
Arrival
| Time | 2026-05-01 09:30 |
|---|---|
| Airport | London Luton Airport (EGGW) |
| Time | Latitude | Longitude | Altitude | Speed | Heading |
|---|---|---|---|---|---|
| 2026-05-01 07:23 | 50.60307 | 20.81414 | 29878 ft | 475 kts | 285° |
| 2026-05-01 07:23 | 50.61191 | 20.71063 | 30613 ft | 477 kts | 285° |
| 2026-05-01 07:24 | 50.61609 | 20.65882 | 30978 ft | 477 kts | 284° |
| 2026-05-01 07:24 | 50.62017 | 20.60708 | 31325 ft | 477 kts | 284° |
| 2026-05-01 07:24 | 50.62419 | 20.55522 | 31654 ft | 477 kts | 284° |
| 2026-05-01 07:24 | 50.62818 | 20.50342 | 31978 ft | 477 kts | 284° |
| 2026-05-01 07:25 | 50.63215 | 20.45160 | 32312 ft | 477 kts | 284° |
| 2026-05-01 07:25 | 50.63609 | 20.39980 | 32632 ft | 476 kts | 284° |
| 2026-05-01 07:25 | 50.64000 | 20.34809 | 32986 ft | 475 kts | 284° |
| 2026-05-01 07:25 | 50.64389 | 20.29650 | 33280 ft | 475 kts | 284° |
| 2026-05-01 07:26 | 50.64932 | 20.24558 | 33561 ft | 468 kts | 291° |
| 2026-05-01 07:26 | 50.65675 | 20.19586 | 33854 ft | 467 kts | 292° |
| 2026-05-01 07:26 | 50.66468 | 20.14619 | 34146 ft | 466 kts | 292° |
| 2026-05-01 07:26 | 50.67284 | 20.09691 | 34413 ft | 465 kts | 293° |
| 2026-05-01 07:27 | 50.68114 | 20.04762 | 34665 ft | 464 kts | 293° |
| 2026-05-01 07:27 | 50.68942 | 19.99855 | 34920 ft | 463 kts | 293° |
| 2026-05-01 07:27 | 50.69766 | 19.94948 | 35174 ft | 461 kts | 292° |
| 2026-05-01 07:27 | 50.70592 | 19.89998 | 35448 ft | 460 kts | 292° |
| 2026-05-01 07:28 | 50.71394 | 19.85165 | 35666 ft | 459 kts | 292° |
| 2026-05-01 07:28 | 50.72206 | 19.80253 | 35873 ft | 459 kts | 292° |
| 2026-05-01 07:28 | 50.72981 | 19.75541 | 36068 ft | 459 kts | 291° |
| 2026-05-01 07:28 | 50.73780 | 19.70665 | 36271 ft | 459 kts | 291° |
| 2026-05-01 07:29 | 50.74578 | 19.65782 | 36354 ft | 461 kts | 291° |
| 2026-05-01 07:29 | 50.76167 | 19.56012 | 36360 ft | 459 kts | 291° |
| 2026-05-01 07:30 | 50.77745 | 19.46244 | 36359 ft | 458 kts | 291° |
| 2026-05-01 07:30 | 50.79313 | 19.36484 | 36364 ft | 458 kts | 291° |
| 2026-05-01 07:31 | 50.80874 | 19.26718 | 36374 ft | 458 kts | 291° |
| 2026-05-01 07:32 | 50.84738 | 19.02280 | 36367 ft | 457 kts | 290° |
| 2026-05-01 07:33 | 50.87025 | 18.87645 | 36368 ft | 457 kts | 290° |
| 2026-05-01 07:33 | 50.89295 | 18.72989 | 36370 ft | 457 kts | 290° |
| 2026-05-01 07:34 | 50.91546 | 18.58317 | 36370 ft | 457 kts | 290° |
| 2026-05-01 07:35 | 50.92786 | 18.50185 | 36377 ft | 457 kts | 290° |
| 2026-05-01 07:35 | 50.94267 | 18.40404 | 36376 ft | 457 kts | 290° |
| 2026-05-01 07:36 | 50.95745 | 18.30593 | 36379 ft | 457 kts | 290° |
| 2026-05-01 07:36 | 50.97223 | 18.20716 | 36339 ft | 457 kts | 289° |
| 2026-05-01 07:37 | 50.99403 | 18.06025 | 36382 ft | 455 kts | 289° |
| 2026-05-01 07:37 | 51.00843 | 17.96249 | 36386 ft | 455 kts | 289° |
| 2026-05-01 07:38 | 51.02278 | 17.86448 | 36383 ft | 455 kts | 289° |
| 2026-05-01 07:39 | 51.04412 | 17.71762 | 36382 ft | 455 kts | 289° |
| 2026-05-01 07:39 | 51.06535 | 17.56996 | 36392 ft | 454 kts | 289° |
| 2026-05-01 07:40 | 51.07933 | 17.47198 | 36395 ft | 454 kts | 289° |
| 2026-05-01 07:40 | 51.09333 | 17.37328 | 36396 ft | 454 kts | 289° |
| 2026-05-01 07:41 | 51.10723 | 17.27458 | 36396 ft | 454 kts | 288° |
| 2026-05-01 07:42 | 51.12774 | 17.12763 | 36400 ft | 453 kts | 288° |
| 2026-05-01 07:42 | 51.14132 | 17.02963 | 36395 ft | 453 kts | 288° |
| 2026-05-01 07:43 | 51.15482 | 16.93161 | 36397 ft | 453 kts | 288° |
| 2026-05-01 07:43 | 51.17490 | 16.78447 | 36402 ft | 452 kts | 287° |
| 2026-05-01 07:44 | 51.20130 | 16.58871 | 36403 ft | 452 kts | 287° |
| 2026-05-01 07:45 | 51.21438 | 16.49077 | 36404 ft | 452 kts | 287° |
| 2026-05-01 07:45 | 51.22746 | 16.39208 | 36404 ft | 452 kts | 287° |
| 2026-05-01 07:46 | 51.24035 | 16.29420 | 36405 ft | 450 kts | 287° |
| 2026-05-01 07:47 | 51.25948 | 16.14764 | 36406 ft | 450 kts | 287° |
| 2026-05-01 07:47 | 51.27214 | 16.04985 | 36406 ft | 450 kts | 287° |
| 2026-05-01 07:48 | 51.29097 | 15.90311 | 36402 ft | 449 kts | 286° |
| 2026-05-01 07:48 | 51.30340 | 15.80538 | 36411 ft | 449 kts | 286° |
| 2026-05-01 07:49 | 51.32196 | 15.65808 | 36413 ft | 449 kts | 286° |
| 2026-05-01 07:50 | 51.33418 | 15.56021 | 36411 ft | 449 kts | 286° |
| 2026-05-01 07:50 | 51.35236 | 15.41339 | 36411 ft | 448 kts | 285° |
| 2026-05-01 07:51 | 51.36434 | 15.31567 | 36413 ft | 448 kts | 285° |
| 2026-05-01 07:52 | 51.38217 | 15.16898 | 36418 ft | 448 kts | 285° |
| 2026-05-01 07:52 | 51.39397 | 15.07102 | 36416 ft | 448 kts | 285° |
| 2026-05-01 07:53 | 51.41066 | 14.92383 | 36414 ft | 448 kts | 282° |
| 2026-05-01 07:53 | 51.41848 | 14.82483 | 36417 ft | 449 kts | 281° |
| 2026-05-01 07:55 | 51.43646 | 14.57667 | 36419 ft | 448 kts | 281° |
| 2026-05-01 07:56 | 51.45461 | 14.33099 | 36420 ft | 446 kts | 280° |
| 2026-05-01 07:57 | 51.46533 | 14.18247 | 36423 ft | 446 kts | 280° |
| 2026-05-01 07:58 | 51.47928 | 13.98472 | 36424 ft | 446 kts | 280° |
| 2026-05-01 07:59 | 51.49289 | 13.78697 | 36420 ft | 446 kts | 280° |
| 2026-05-01 08:00 | 51.51277 | 13.48892 | 36422 ft | 445 kts | 279° |
| 2026-05-01 08:01 | 51.52551 | 13.29141 | 36425 ft | 445 kts | 279° |
| 2026-05-01 08:02 | 51.53485 | 13.14326 | 36431 ft | 445 kts | 279° |
| 2026-05-01 08:03 | 51.54400 | 12.99512 | 36429 ft | 444 kts | 279° |
| 2026-05-01 08:03 | 51.55285 | 12.84868 | 36429 ft | 443 kts | 278° |
| 2026-05-01 08:04 | 51.56457 | 12.66759 | 36438 ft | 443 kts | 279° |
| 2026-05-01 08:05 | 51.57491 | 12.51950 | 36443 ft | 441 kts | 279° |
| 2026-05-01 08:06 | 51.58485 | 12.37243 | 36454 ft | 441 kts | 279° |
| 2026-05-01 08:07 | 51.59775 | 12.17621 | 36451 ft | 441 kts | 278° |
| 2026-05-01 08:08 | 51.60715 | 12.02980 | 36444 ft | 440 kts | 278° |
| 2026-05-01 08:09 | 51.61942 | 11.83425 | 36450 ft | 439 kts | 278° |
| 2026-05-01 08:09 | 51.62544 | 11.73638 | 36450 ft | 439 kts | 278° |
| 2026-05-01 08:10 | 51.63709 | 11.54312 | 36442 ft | 439 kts | 277° |
| 2026-05-01 08:11 | 51.64838 | 11.35035 | 36448 ft | 439 kts | 277° |
| 2026-05-01 08:12 | 51.65676 | 11.20365 | 36442 ft | 439 kts | 277° |
| 2026-05-01 08:13 | 51.66493 | 11.05715 | 36443 ft | 437 kts | 277° |
| 2026-05-01 08:13 | 51.67292 | 10.91097 | 36425 ft | 437 kts | 277° |
| 2026-05-01 08:14 | 51.67917 | 10.81344 | 36436 ft | 437 kts | 278° |
| 2026-05-01 08:14 | 51.68611 | 10.71622 | 36436 ft | 437 kts | 278° |
| 2026-05-01 08:15 | 51.69635 | 10.57071 | 36430 ft | 435 kts | 278° |
| 2026-05-01 08:16 | 51.70294 | 10.47379 | 36438 ft | 435 kts | 278° |
| 2026-05-01 08:16 | 51.70941 | 10.37693 | 36438 ft | 435 kts | 278° |
| 2026-05-01 08:17 | 51.71581 | 10.28001 | 36439 ft | 435 kts | 277° |
| 2026-05-01 08:17 | 51.72213 | 10.18312 | 36437 ft | 434 kts | 277° |
| 2026-05-01 08:18 | 51.72834 | 10.08664 | 36434 ft | 433 kts | 277° |
| 2026-05-01 08:19 | 51.74055 | 9.89315 | 36430 ft | 433 kts | 277° |
| 2026-05-01 08:19 | 51.74654 | 9.79629 | 36429 ft | 433 kts | 277° |
| 2026-05-01 08:20 | 51.75247 | 9.69914 | 36421 ft | 433 kts | 277° |
| 2026-05-01 08:20 | 51.75829 | 9.60242 | 36424 ft | 433 kts | 277° |
| 2026-05-01 08:21 | 51.76403 | 9.50575 | 36427 ft | 432 kts | 277° |
| 2026-05-01 08:21 | 51.76971 | 9.40864 | 36428 ft | 433 kts | 277° |
| 2026-05-01 08:22 | 51.77530 | 9.31170 | 36416 ft | 433 kts | 277° |
| 2026-05-01 08:22 | 51.78082 | 9.21482 | 36418 ft | 433 kts | 277° |
| 2026-05-01 08:23 | 51.78622 | 9.11828 | 36414 ft | 433 kts | 277° |
| 2026-05-01 08:23 | 51.79156 | 9.02150 | 36412 ft | 433 kts | 277° |
| 2026-05-01 08:24 | 51.79685 | 8.92400 | 36408 ft | 433 kts | 276° |
| 2026-05-01 08:24 | 51.80203 | 8.82718 | 36405 ft | 433 kts | 277° |
| 2026-05-01 08:25 | 51.80712 | 8.73056 | 36400 ft | 432 kts | 276° |
| 2026-05-01 08:25 | 51.81214 | 8.63368 | 36403 ft | 432 kts | 276° |
| 2026-05-01 08:26 | 51.81704 | 8.53758 | 36399 ft | 432 kts | 276° |
| 2026-05-01 08:26 | 51.82190 | 8.44080 | 36399 ft | 432 kts | 276° |
| 2026-05-01 08:27 | 51.82668 | 8.34394 | 36394 ft | 432 kts | 276° |
| 2026-05-01 08:27 | 51.83138 | 8.24714 | 36395 ft | 432 kts | 276° |
| 2026-05-01 08:28 | 51.83600 | 8.15028 | 36391 ft | 432 kts | 276° |
| 2026-05-01 08:28 | 51.84054 | 8.05334 | 36393 ft | 432 kts | 276° |
| 2026-05-01 08:29 | 51.84499 | 7.95645 | 36390 ft | 432 kts | 276° |
| 2026-05-01 08:29 | 51.84937 | 7.85960 | 36389 ft | 432 kts | 276° |
| 2026-05-01 08:30 | 51.85368 | 7.76256 | 36384 ft | 433 kts | 275° |
| 2026-05-01 08:30 | 51.85790 | 7.66549 | 36385 ft | 433 kts | 276° |
| 2026-05-01 08:31 | 51.86202 | 7.56893 | 36382 ft | 433 kts | 275° |
| 2026-05-01 08:31 | 51.86610 | 7.47165 | 36381 ft | 433 kts | 275° |
| 2026-05-01 08:32 | 51.87008 | 7.37438 | 36373 ft | 433 kts | 275° |
| 2026-05-01 08:32 | 51.87400 | 7.27714 | 36373 ft | 433 kts | 275° |
| 2026-05-01 08:33 | 51.87784 | 7.17971 | 36367 ft | 433 kts | 275° |
| 2026-05-01 08:33 | 51.88160 | 7.08184 | 36365 ft | 433 kts | 275° |
| 2026-05-01 08:34 | 51.88527 | 6.98445 | 36356 ft | 434 kts | 275° |
| 2026-05-01 08:34 | 51.88886 | 6.88709 | 36356 ft | 433 kts | 275° |
| 2026-05-01 08:35 | 51.89238 | 6.78966 | 36354 ft | 433 kts | 274° |
| 2026-05-01 08:35 | 51.89580 | 6.69266 | 36354 ft | 434 kts | 274° |
| 2026-05-01 08:36 | 51.89916 | 6.59474 | 36349 ft | 433 kts | 274° |
| 2026-05-01 08:36 | 51.90243 | 6.49729 | 36348 ft | 434 kts | 274° |
| 2026-05-01 08:37 | 51.90559 | 6.40044 | 36346 ft | 434 kts | 274° |
| 2026-05-01 08:37 | 51.90870 | 6.30289 | 36343 ft | 434 kts | 273° |
| 2026-05-01 08:38 | 51.91173 | 6.20532 | 36339 ft | 434 kts | 273° |
| 2026-05-01 08:38 | 51.91469 | 6.10777 | 36340 ft | 434 kts | 273° |
| 2026-05-01 08:39 | 51.91756 | 6.01009 | 36336 ft | 434 kts | 273° |
| 2026-05-01 08:39 | 51.92035 | 5.91249 | 36333 ft | 434 kts | 273° |
| 2026-05-01 08:40 | 51.92439 | 5.76593 | 36332 ft | 435 kts | 272° |
| 2026-05-01 08:40 | 51.92655 | 5.68461 | 36332 ft | 435 kts | 272° |
| 2026-05-01 08:41 | 51.92907 | 5.58671 | 36328 ft | 435 kts | 272° |
| 2026-05-01 08:41 | 51.93152 | 5.48878 | 36327 ft | 435 kts | 272° |
| 2026-05-01 08:42 | 51.93388 | 5.39096 | 36317 ft | 435 kts | 272° |
| 2026-05-01 08:42 | 51.93617 | 5.29294 | 36317 ft | 435 kts | 271° |
| 2026-05-01 08:43 | 51.93837 | 5.19503 | 36312 ft | 435 kts | 271° |
| 2026-05-01 08:43 | 51.94048 | 5.09723 | 36312 ft | 435 kts | 271° |
| 2026-05-01 08:44 | 51.94252 | 4.99922 | 36301 ft | 435 kts | 271° |
| 2026-05-01 08:44 | 51.94447 | 4.90128 | 36301 ft | 435 kts | 271° |
| 2026-05-01 08:45 | 51.94635 | 4.80361 | 36295 ft | 435 kts | 270° |
| 2026-05-01 08:45 | 51.94814 | 4.70584 | 36288 ft | 435 kts | 270° |
| 2026-05-01 08:46 | 51.94985 | 4.60774 | 36291 ft | 435 kts | 270° |
| 2026-05-01 08:46 | 51.95148 | 4.50982 | 36292 ft | 435 kts | 271° |
| 2026-05-01 08:47 | 51.95303 | 4.41188 | 36293 ft | 435 kts | 270° |
| 2026-05-01 08:47 | 51.95450 | 4.31410 | 36292 ft | 435 kts | 270° |
| 2026-05-01 08:48 | 51.95589 | 4.21598 | 36291 ft | 435 kts | 270° |
| 2026-05-01 08:48 | 51.95719 | 4.11797 | 36290 ft | 435 kts | 269° |
| 2026-05-01 08:49 | 51.95842 | 4.02010 | 36289 ft | 434 kts | 270° |
| 2026-05-01 08:49 | 51.95956 | 3.92220 | 36288 ft | 435 kts | 270° |
| 2026-05-01 08:50 | 51.96062 | 3.82431 | 36287 ft | 435 kts | 268° |
| 2026-05-01 08:50 | 51.96160 | 3.72617 | 36287 ft | 435 kts | 269° |
| 2026-05-01 08:51 | 51.96251 | 3.62809 | 36284 ft | 435 kts | 269° |
| 2026-05-01 08:51 | 51.96332 | 3.53042 | 35800 ft | 430 kts | 269° |
| 2026-05-01 08:52 | 51.96370 | 3.48179 | 35157 ft | 429 kts | 269° |
| 2026-05-01 08:52 | 51.96405 | 3.43346 | 34503 ft | 429 kts | 268° |
| 2026-05-01 08:52 | 51.96439 | 3.38501 | 33794 ft | 429 kts | 268° |
| 2026-05-01 08:52 | 51.96470 | 3.33670 | 33091 ft | 428 kts | 268° |
| 2026-05-01 08:53 | 51.96499 | 3.28853 | 32441 ft | 426 kts | 268° |
| 2026-05-01 08:53 | 51.96527 | 3.24062 | 31837 ft | 424 kts | 268° |
| 2026-05-01 08:53 | 51.96547 | 3.19308 | 31253 ft | 421 kts | 266° |
| 2026-05-01 08:53 | 51.96355 | 3.14602 | 30681 ft | 417 kts | 263° |
| 2026-05-01 08:54 | 51.96103 | 3.09928 | 30078 ft | 414 kts | 262° |
| 2026-05-01 08:54 | 51.95822 | 3.05312 | 29475 ft | 410 kts | 261° |
| 2026-05-01 08:54 | 51.95525 | 3.00723 | 28904 ft | 406 kts | 261° |
| 2026-05-01 08:54 | 51.95222 | 2.96186 | 28351 ft | 403 kts | 261° |
| 2026-05-01 08:55 | 51.94919 | 2.91696 | 27794 ft | 399 kts | 260° |
| 2026-05-01 08:55 | 51.94619 | 2.87252 | 27288 ft | 395 kts | 260° |
| 2026-05-01 08:55 | 51.94322 | 2.82849 | 26758 ft | 392 kts | 260° |
| 2026-05-01 08:55 | 51.94027 | 2.78472 | 26229 ft | 389 kts | 260° |
| 2026-05-01 08:56 | 51.93734 | 2.74136 | 25714 ft | 386 kts | 260° |
| 2026-05-01 08:56 | 51.93442 | 2.69829 | 25214 ft | 383 kts | 260° |
| 2026-05-01 08:56 | 51.93150 | 2.65544 | 24720 ft | 381 kts | 259° |
| 2026-05-01 08:56 | 51.92858 | 2.61291 | 24235 ft | 378 kts | 259° |
| 2026-05-01 08:57 | 51.92568 | 2.57084 | 23742 ft | 376 kts | 259° |
| 2026-05-01 08:57 | 51.92277 | 2.52896 | 23171 ft | 373 kts | 259° |
| 2026-05-01 08:57 | 51.91988 | 2.48737 | 22625 ft | 370 kts | 259° |
| 2026-05-01 08:57 | 51.91699 | 2.44606 | 22089 ft | 367 kts | 259° |
| 2026-05-01 08:58 | 51.91412 | 2.40508 | 21573 ft | 365 kts | 259° |
| 2026-05-01 08:58 | 51.91125 | 2.36447 | 21051 ft | 362 kts | 259° |
| 2026-05-01 08:58 | 51.90864 | 2.32440 | 20537 ft | 360 kts | 262° |
| 2026-05-01 08:58 | 51.90728 | 2.28361 | 20025 ft | 359 kts | 263° |
| 2026-05-01 08:59 | 51.90635 | 2.24335 | 19528 ft | 356 kts | 264° |
| 2026-05-01 08:59 | 51.90547 | 2.20345 | 19028 ft | 354 kts | 264° |
| 2026-05-01 08:59 | 51.90458 | 2.16379 | 18555 ft | 351 kts | 264° |
| 2026-05-01 08:59 | 51.90365 | 2.12388 | 18285 ft | 349 kts | 263° |
| 2026-05-01 09:00 | 51.90271 | 2.08451 | 18256 ft | 350 kts | 263° |
| 2026-05-01 09:00 | 51.90175 | 2.04517 | 18165 ft | 349 kts | 263° |
| 2026-05-01 09:00 | 51.90079 | 2.00603 | 17875 ft | 348 kts | 263° |
| 2026-05-01 09:00 | 51.89980 | 1.96687 | 17616 ft | 348 kts | 263° |
| 2026-05-01 09:01 | 51.89901 | 1.92779 | 17456 ft | 348 kts | 266° |
| 2026-05-01 09:01 | 51.90250 | 1.88881 | 17292 ft | 354 kts | 285° |
| 2026-05-01 09:01 | 51.91420 | 1.85352 | 17148 ft | 359 kts | 303° |
| 2026-05-01 09:01 | 51.92979 | 1.82191 | 16991 ft | 360 kts | 308° |
| 2026-05-01 09:02 | 51.94602 | 1.79105 | 16839 ft | 360 kts | 308° |
| 2026-05-01 09:02 | 51.96225 | 1.76024 | 16685 ft | 359 kts | 308° |
| 2026-05-01 09:02 | 51.97838 | 1.72940 | 16526 ft | 358 kts | 308° |
| 2026-05-01 09:02 | 51.99442 | 1.69854 | 16377 ft | 357 kts | 308° |
| 2026-05-01 09:03 | 52.00998 | 1.66845 | 16230 ft | 356 kts | 307° |
| 2026-05-01 09:03 | 52.02585 | 1.63767 | 16084 ft | 355 kts | 307° |
| 2026-05-01 09:03 | 52.04186 | 1.60657 | 15925 ft | 354 kts | 307° |
| 2026-05-01 09:03 | 52.05755 | 1.57601 | 15777 ft | 352 kts | 307° |
| 2026-05-01 09:04 | 52.07299 | 1.54590 | 15620 ft | 351 kts | 307° |
| 2026-05-01 09:04 | 52.08880 | 1.51504 | 15474 ft | 350 kts | 307° |
| 2026-05-01 09:04 | 52.10424 | 1.48486 | 15329 ft | 349 kts | 307° |
| 2026-05-01 09:04 | 52.11972 | 1.45455 | 15187 ft | 349 kts | 307° |
| 2026-05-01 09:05 | 52.13524 | 1.42412 | 15055 ft | 349 kts | 307° |
| 2026-05-01 09:05 | 52.15075 | 1.39304 | 14902 ft | 348 kts | 303° |
| 2026-05-01 09:05 | 52.16187 | 1.35876 | 14748 ft | 340 kts | 283° |
| 2026-05-01 09:05 | 52.16674 | 1.32141 | 14612 ft | 336 kts | 275° |
| 2026-05-01 09:06 | 52.16981 | 1.28379 | 14471 ft | 335 kts | 273° |
| 2026-05-01 09:06 | 52.17262 | 1.24614 | 14331 ft | 335 kts | 273° |
| 2026-05-01 09:06 | 52.17544 | 1.20855 | 14245 ft | 334 kts | 273° |
| 2026-05-01 09:06 | 52.17830 | 1.17103 | 14235 ft | 334 kts | 273° |
| 2026-05-01 09:07 | 52.18118 | 1.13351 | 14235 ft | 334 kts | 273° |
| 2026-05-01 09:07 | 52.18408 | 1.09595 | 14238 ft | 334 kts | 274° |
| 2026-05-01 09:07 | 52.18697 | 1.05845 | 14238 ft | 334 kts | 273° |
| 2026-05-01 09:07 | 52.18985 | 1.02110 | 14239 ft | 334 kts | 273° |
| 2026-05-01 09:08 | 52.19274 | 0.98356 | 14253 ft | 333 kts | 273° |
| 2026-05-01 09:08 | 52.19561 | 0.94615 | 14241 ft | 333 kts | 273° |
| 2026-05-01 09:08 | 52.19846 | 0.90876 | 14216 ft | 332 kts | 273° |
| 2026-05-01 09:08 | 52.20130 | 0.87146 | 14214 ft | 331 kts | 273° |
| 2026-05-01 09:09 | 52.20411 | 0.83438 | 14216 ft | 329 kts | 273° |
| 2026-05-01 09:09 | 52.20655 | 0.79737 | 14149 ft | 326 kts | 268° |
| 2026-05-01 09:09 | 52.20559 | 0.76090 | 13619 ft | 320 kts | 259° |
| 2026-05-01 09:09 | 52.20256 | 0.72491 | 13135 ft | 318 kts | 257° |
| 2026-05-01 09:10 | 52.19901 | 0.68953 | 12799 ft | 317 kts | 256° |
| 2026-05-01 09:10 | 52.19527 | 0.65412 | 12472 ft | 316 kts | 256° |
| 2026-05-01 09:10 | 52.19147 | 0.61887 | 12146 ft | 315 kts | 256° |
| 2026-05-01 09:10 | 52.18766 | 0.58388 | 11815 ft | 313 kts | 256° |
| 2026-05-01 09:11 | 52.18384 | 0.54904 | 11492 ft | 311 kts | 256° |
| 2026-05-01 09:11 | 52.18003 | 0.51448 | 11167 ft | 310 kts | 256° |
| 2026-05-01 09:11 | 52.17622 | 0.48002 | 10865 ft | 308 kts | 256° |
| 2026-05-01 09:11 | 52.17241 | 0.44573 | 10555 ft | 307 kts | 256° |
| 2026-05-01 09:12 | 52.16861 | 0.41165 | 10247 ft | 306 kts | 257° |
| 2026-05-01 09:12 | 52.16483 | 0.37776 | 9909 ft | 300 kts | 256° |
| 2026-05-01 09:12 | 52.16115 | 0.34476 | 9576 ft | 292 kts | 257° |
| 2026-05-01 09:12 | 52.15750 | 0.31220 | 9230 ft | 286 kts | 256° |
| 2026-05-01 09:13 | 52.15394 | 0.28048 | 8884 ft | 284 kts | 257° |
| 2026-05-01 09:13 | 52.15038 | 0.24899 | 8554 ft | 282 kts | 256° |
| 2026-05-01 09:13 | 52.14604 | 0.21828 | 8239 ft | 278 kts | 248° |
| 2026-05-01 09:13 | 52.13938 | 0.18928 | 7927 ft | 275 kts | 245° |
| 2026-05-01 09:14 | 52.13209 | 0.16067 | 7597 ft | 273 kts | 244° |
| 2026-05-01 09:14 | 52.12462 | 0.13244 | 7275 ft | 271 kts | 244° |
| 2026-05-01 09:14 | 52.11709 | 0.10454 | 6964 ft | 269 kts | 244° |
| 2026-05-01 09:14 | 52.10945 | 0.07645 | 6650 ft | 266 kts | 244° |
| 2026-05-01 09:15 | 52.10195 | 0.04905 | 6315 ft | 264 kts | 244° |
| 2026-05-01 09:15 | 52.09449 | 0.02186 | 5988 ft | 263 kts | 244° |
| 2026-05-01 09:15 | 52.08703 | -0.00529 | 5634 ft | 262 kts | 244° |
| 2026-05-01 09:15 | 52.07960 | -0.03223 | 5311 ft | 262 kts | 244° |
| 2026-05-01 09:16 | 52.07215 | -0.05927 | 5199 ft | 262 kts | 243° |
| 2026-05-01 09:16 | 52.06477 | -0.08599 | 5187 ft | 263 kts | 243° |
| 2026-05-01 09:16 | 52.05728 | -0.11307 | 5189 ft | 263 kts | 243° |
| 2026-05-01 09:17 | 52.04484 | -0.15791 | 5168 ft | 262 kts | 243° |
| 2026-05-01 09:17 | 52.03736 | -0.18492 | 5185 ft | 262 kts | 243° |
| 2026-05-01 09:17 | 52.02234 | -0.23890 | 5002 ft | 261 kts | 243° |
| 2026-05-01 09:18 | 52.01486 | -0.26575 | 4981 ft | 261 kts | 243° |
| 2026-05-01 09:18 | 51.99987 | -0.31953 | 4987 ft | 262 kts | 243° |
| 2026-05-01 09:19 | 51.98478 | -0.37350 | 4988 ft | 262 kts | 243° |
| 2026-05-01 09:19 | 51.97723 | -0.40041 | 4993 ft | 262 kts | 243° |
| 2026-05-01 09:19 | 51.96976 | -0.42703 | 4991 ft | 261 kts | 243° |
| 2026-05-01 09:20 | 51.95459 | -0.48108 | 4979 ft | 261 kts | 243° |
| 2026-05-01 09:20 | 51.93954 | -0.53462 | 4984 ft | 259 kts | 243° |
| 2026-05-01 09:21 | 51.92576 | -0.58362 | 5001 ft | 218 kts | 242° |
| 2026-05-01 09:21 | 51.91968 | -0.60512 | 4974 ft | 205 kts | 242° |
| 2026-05-01 09:21 | 51.90807 | -0.64601 | 4209 ft | 202 kts | 242° |
| 2026-05-01 09:22 | 51.89612 | -0.68803 | 3278 ft | 198 kts | 242° |
| 2026-05-01 09:22 | 51.88504 | -0.72710 | 2834 ft | 188 kts | 240° |
| 2026-05-01 09:23 | 51.87806 | -0.74475 | 2937 ft | 184 kts | 222° |
| 2026-05-01 09:23 | 51.85515 | -0.75359 | 2982 ft | 178 kts | 168° |
| 2026-05-01 09:24 | 51.83134 | -0.74219 | 2970 ft | 178 kts | 157° |
| 2026-05-01 09:24 | 51.82147 | -0.73004 | 2963 ft | 182 kts | 124° |
| 2026-05-01 09:24 | 51.81934 | -0.68918 | 2965 ft | 191 kts | 82° |
| 2026-05-01 09:25 | 51.82648 | -0.64733 | 2975 ft | 193 kts | 78° |
| 2026-05-01 09:25 | 51.83337 | -0.60741 | 2962 ft | 167 kts | 79° |
| 2026-05-01 09:26 | 51.83636 | -0.58980 | 3005 ft | 160 kts | 79° |
| 2026-05-01 09:26 | 51.84197 | -0.55707 | 2764 ft | 147 kts | 79° |
| 2026-05-01 09:26 | 51.84470 | -0.54134 | 2538 ft | 144 kts | 80° |
| 2026-05-01 09:27 | 51.85012 | -0.51009 | 2156 ft | 144 kts | 79° |
| 2026-05-01 09:27 | 51.85280 | -0.49452 | 1971 ft | 146 kts | 79° |
| 2026-05-01 09:27 | 51.85557 | -0.47865 | 1771 ft | 144 kts | 81° |
| 2026-05-01 09:28 | 51.85823 | -0.46320 | 1576 ft | 141 kts | 80° |
| 2026-05-01 09:28 | 51.86087 | -0.44783 | 1386 ft | 143 kts | 78° |
| 2026-05-01 09:28 | 51.86354 | -0.43266 | 1188 ft | 138 kts | 79° |
| 2026-05-01 09:28 | 51.86629 | -0.41783 | 1002 ft | 136 kts | 79° |
| 2026-05-01 09:29 | 51.87131 | -0.38814 | 601 ft | 135 kts | 78° |
| 2026-05-01 09:29 | 51.87369 | -0.37396 | 527 ft | 121 kts | 77° |
| 2026-05-01 09:30 | 51.87604 | -0.36032 | 518 ft | 28 kts | 75° |
| 2026-05-01 09:30 | 51.87631 | -0.35926 | 519 ft | 0 kts | 20° |
| 2026-05-01 09:30 | 51.87688 | -0.35928 | 519 ft | 10 kts | 346° |
| 2026-05-01 09:31 | 51.87746 | -0.35960 | 519 ft | 8 kts | 329° |
| 2026-05-01 09:31 | 51.87783 | -0.36016 | 520 ft | 0 kts | 311° |
| 2026-05-01 09:31 | 51.87786 | -0.36023 | 520 ft | 0 kts | 307° |
| 2026-05-01 09:33 | 51.87787 | -0.36026 | 520 ft | 1 kts | 299° |
| 2026-05-01 09:34 | 51.87787 | -0.36047 | 543 ft | 4 kts | 264° |
| 2026-05-01 09:34 | 51.87775 | -0.36127 | 521 ft | 9 kts | 253° |
| 2026-05-01 09:34 | 51.87730 | -0.36384 | 522 ft | 14 kts | 254° |
| 2026-05-01 09:35 | 51.87703 | -0.36538 | 523 ft | 14 kts | 254° |
| 2026-05-01 09:35 | 51.87673 | -0.36830 | 526 ft | 13 kts | 306° |
| 2026-05-01 09:35 | 51.87766 | -0.36899 | 519 ft | 16 kts | 342° |
| 2026-05-01 09:36 | 51.87884 | -0.36962 | 515 ft | 19 kts | 342° |
| 2026-05-01 09:36 | 51.87993 | -0.37040 | 515 ft | 16 kts | 309° |
| 2026-05-01 09:36 | 51.88040 | -0.37201 | 511 ft | 13 kts | 270° |
| 2026-05-01 09:36 | 51.88062 | -0.37260 | 511 ft | 6 kts | 343° |
| 2026-05-01 09:37 | 51.88092 | -0.37275 | 511 ft | 3 kts | 341° |
| 2026-05-01 09:37 | 51.88099 | -0.37279 | 511 ft | 0 kts | 341° |